sensor_id;sensor_type;location;lat;lon;timestamp;P1;durP1;ratioP1;P2;durP2;ratioP2
21507;SDS011;10915;54.352;9.074;2023-08-31T00:00:05;4.90;;;1.83;;
21507;SDS011;10915;54.352;9.074;2023-08-31T00:02:35;3.13;;;1.40;;
21507;SDS011;10915;54.352;9.074;2023-08-31T00:05:01;3.77;;;1.73;;
21507;SDS011;10915;54.352;9.074;2023-08-31T00:07:26;1.77;;;1.30;;
21507;SDS011;10915;54.352;9.074;2023-08-31T00:09:52;4.17;;;1.87;;
21507;SDS011;10915;54.352;9.074;2023-08-31T00:12:18;4.67;;;1.77;;
21507;SDS011;10915;54.352;9.074;2023-08-31T00:14:44;3.93;;;1.90;;
21507;SDS011;10915;54.352;9.074;2023-08-31T00:17:09;2.80;;;1.83;;
21507;SDS011;10915;54.352;9.074;2023-08-31T00:19:35;2.87;;;2.03;;
21507;SDS011;10915;54.352;9.074;2023-08-31T00:22:01;3.17;;;2.00;;
21507;SDS011;10915;54.352;9.074;2023-08-31T00:24:26;2.73;;;1.80;;
21507;SDS011;10915;54.352;9.074;2023-08-31T00:26:58;2.73;;;2.07;;
21507;SDS011;10915;54.352;9.074;2023-08-31T00:29:24;2.43;;;1.60;;
21507;SDS011;10915;54.352;9.074;2023-08-31T00:31:50;2.43;;;1.83;;
21507;SDS011;10915;54.352;9.074;2023-08-31T00:34:18;2.10;;;1.73;;
21507;SDS011;10915;54.352;9.074;2023-08-31T00:36:44;3.27;;;1.90;;
21507;SDS011;10915;54.352;9.074;2023-08-31T00:39:09;4.77;;;1.93;;
21507;SDS011;10915;54.352;9.074;2023-08-31T00:41:36;4.70;;;2.00;;
21507;SDS011;10915;54.352;9.074;2023-08-31T00:44:02;2.80;;;1.80;;
21507;SDS011;10915;54.352;9.074;2023-08-31T00:46:30;4.40;;;1.90;;
21507;SDS011;10915;54.352;9.074;2023-08-31T00:48:56;3.30;;;1.90;;
21507;SDS011;10915;54.352;9.074;2023-08-31T00:51:23;3.80;;;1.80;;
21507;SDS011;10915;54.352;9.074;2023-08-31T00:53:49;3.13;;;1.93;;
21507;SDS011;10915;54.352;9.074;2023-08-31T00:56:22;3.27;;;2.10;;
21507;SDS011;10915;54.352;9.074;2023-08-31T00:58:48;4.03;;;1.63;;
21507;SDS011;10915;54.352;9.074;2023-08-31T01:09:38;4.40;;;1.70;;
21507;SDS011;10915;54.352;9.074;2023-08-31T01:12:21;4.70;;;1.90;;
21507;SDS011;10915;54.352;9.074;2023-08-31T01:15:04;5.70;;;2.33;;
21507;SDS011;10915;54.352;9.074;2023-08-31T01:17:45;5.90;;;2.10;;
21507;SDS011;10915;54.352;9.074;2023-08-31T01:20:20;5.80;;;2.23;;
21507;SDS011;10915;54.352;9.074;2023-08-31T01:23:01;5.30;;;1.80;;
21507;SDS011;10915;54.352;9.074;2023-08-31T01:25:29;3.60;;;1.77;;
21507;SDS011;10915;54.352;9.074;2023-08-31T01:27:58;4.40;;;1.53;;
21507;SDS011;10915;54.352;9.074;2023-08-31T01:30:24;4.93;;;2.10;;
21507;SDS011;10915;54.352;9.074;2023-08-31T01:32:54;5.27;;;1.90;;
21507;SDS011;10915;54.352;9.074;2023-08-31T01:35:20;5.23;;;2.00;;
21507;SDS011;10915;54.352;9.074;2023-08-31T01:37:59;5.20;;;1.90;;
21507;SDS011;10915;54.352;9.074;2023-08-31T01:40:31;5.30;;;1.90;;
21507;SDS011;10915;54.352;9.074;2023-08-31T01:43:02;5.17;;;2.00;;
21507;SDS011;10915;54.352;9.074;2023-08-31T01:45:30;7.10;;;2.23;;
21507;SDS011;10915;54.352;9.074;2023-08-31T01:47:58;4.47;;;1.73;;
21507;SDS011;10915;54.352;9.074;2023-08-31T01:50:24;7.03;;;2.20;;
21507;SDS011;10915;54.352;9.074;2023-08-31T01:52:51;7.40;;;2.23;;
21507;SDS011;10915;54.352;9.074;2023-08-31T01:55:18;6.57;;;2.37;;
21507;SDS011;10915;54.352;9.074;2023-08-31T01:57:44;4.47;;;1.90;;
21507;SDS011;10915;54.352;9.074;2023-08-31T02:00:09;5.27;;;2.07;;
21507;SDS011;10915;54.352;9.074;2023-08-31T02:02:35;4.80;;;1.97;;
21507;SDS011;10915;54.352;9.074;2023-08-31T02:05:01;4.27;;;2.50;;
21507;SDS011;10915;54.352;9.074;2023-08-31T02:07:29;3.73;;;2.07;;
21507;SDS011;10915;54.352;9.074;2023-08-31T02:09:55;4.17;;;2.00;;
21507;SDS011;10915;54.352;9.074;2023-08-31T02:12:20;3.63;;;2.20;;
21507;SDS011;10915;54.352;9.074;2023-08-31T02:14:46;4.93;;;2.23;;
21507;SDS011;10915;54.352;9.074;2023-08-31T02:17:12;3.33;;;2.03;;
21507;SDS011;10915;54.352;9.074;2023-08-31T02:19:37;5.13;;;2.00;;
21507;SDS011;10915;54.352;9.074;2023-08-31T02:22:09;4.37;;;2.50;;
21507;SDS011;10915;54.352;9.074;2023-08-31T02:24:53;4.30;;;1.93;;
21507;SDS011;10915;54.352;9.074;2023-08-31T02:27:21;4.37;;;2.00;;
21507;SDS011;10915;54.352;9.074;2023-08-31T02:29:57;8.97;;;2.43;;
21507;SDS011;10915;54.352;9.074;2023-08-31T02:32:23;6.37;;;2.10;;
21507;SDS011;10915;54.352;9.074;2023-08-31T02:34:49;5.80;;;2.27;;
21507;SDS011;10915;54.352;9.074;2023-08-31T02:37:18;4.03;;;1.97;;
21507;SDS011;10915;54.352;9.074;2023-08-31T02:39:47;3.63;;;1.53;;
21507;SDS011;10915;54.352;9.074;2023-08-31T02:42:21;5.07;;;1.80;;
21507;SDS011;10915;54.352;9.074;2023-08-31T02:44:52;5.93;;;2.20;;
21507;SDS011;10915;54.352;9.074;2023-08-31T02:47:30;5.20;;;2.07;;
21507;SDS011;10915;54.352;9.074;2023-08-31T02:50:19;5.80;;;2.23;;
21507;SDS011;10915;54.352;9.074;2023-08-31T02:52:52;9.60;;;2.13;;
21507;SDS011;10915;54.352;9.074;2023-08-31T02:55:17;4.33;;;1.67;;
21507;SDS011;10915;54.352;9.074;2023-08-31T02:57:43;3.50;;;1.93;;
21507;SDS011;10915;54.352;9.074;2023-08-31T03:00:09;4.50;;;1.90;;
21507;SDS011;10915;54.352;9.074;2023-08-31T03:05:54;4.97;;;1.70;;
21507;SDS011;10915;54.352;9.074;2023-08-31T03:08:25;6.23;;;1.80;;
21507;SDS011;10915;54.352;9.074;2023-08-31T03:10:55;4.23;;;2.10;;
21507;SDS011;10915;54.352;9.074;2023-08-31T03:13:24;5.47;;;1.90;;
21507;SDS011;10915;54.352;9.074;2023-08-31T03:15:50;3.37;;;1.47;;
21507;SDS011;10915;54.352;9.074;2023-08-31T03:18:15;4.70;;;1.90;;
21507;SDS011;10915;54.352;9.074;2023-08-31T03:20:41;4.10;;;1.90;;
21507;SDS011;10915;54.352;9.074;2023-08-31T03:23:07;2.87;;;1.50;;
21507;SDS011;10915;54.352;9.074;2023-08-31T03:25:34;4.30;;;1.60;;
21507;SDS011;10915;54.352;9.074;2023-08-31T03:28:00;3.43;;;1.37;;
21507;SDS011;10915;54.352;9.074;2023-08-31T03:30:25;3.60;;;1.80;;
21507;SDS011;10915;54.352;9.074;2023-08-31T03:32:51;2.33;;;1.27;;
21507;SDS011;10915;54.352;9.074;2023-08-31T03:35:17;4.70;;;1.70;;
21507;SDS011;10915;54.352;9.074;2023-08-31T03:37:51;3.40;;;1.70;;
21507;SDS011;10915;54.352;9.074;2023-08-31T03:44:03;4.93;;;1.73;;
21507;SDS011;10915;54.352;9.074;2023-08-31T03:46:29;5.73;;;1.60;;
21507;SDS011;10915;54.352;9.074;2023-08-31T03:48:57;3.90;;;1.67;;
21507;SDS011;10915;54.352;9.074;2023-08-31T03:51:32;3.77;;;1.33;;
21507;SDS011;10915;54.352;9.074;2023-08-31T03:57:21;3.77;;;1.53;;
21507;SDS011;10915;54.352;9.074;2023-08-31T04:00:04;4.03;;;1.87;;
21507;SDS011;10915;54.352;9.074;2023-08-31T04:02:37;4.00;;;1.60;;
21507;SDS011;10915;54.352;9.074;2023-08-31T04:09:01;4.10;;;1.50;;
21507;SDS011;10915;54.352;9.074;2023-08-31T04:34:07;6.97;;;2.07;;
21507;SDS011;10915;54.352;9.074;2023-08-31T04:44:07;3.70;;;1.37;;
21507;SDS011;10915;54.352;9.074;2023-08-31T04:47:26;3.63;;;1.60;;
21507;SDS011;10915;54.352;9.074;2023-08-31T04:50:08;4.67;;;1.30;;
21507;SDS011;10915;54.352;9.074;2023-08-31T04:52:37;3.07;;;1.13;;
21507;SDS011;10915;54.352;9.074;2023-08-31T04:55:56;3.17;;;1.20;;
21507;SDS011;10915;54.352;9.074;2023-08-31T04:58:46;3.03;;;1.27;;
21507;SDS011;10915;54.352;9.074;2023-08-31T05:04:58;3.03;;;1.23;;
21507;SDS011;10915;54.352;9.074;2023-08-31T05:07:23;3.37;;;1.23;;
21507;SDS011;10915;54.352;9.074;2023-08-31T05:09:54;6.00;;;1.27;;
21507;SDS011;10915;54.352;9.074;2023-08-31T05:13:10;4.13;;;1.00;;
21507;SDS011;10915;54.352;9.074;2023-08-31T05:16:06;4.50;;;1.40;;
21507;SDS011;10915;54.352;9.074;2023-08-31T05:18:49;2.07;;;1.00;;
21507;SDS011;10915;54.352;9.074;2023-08-31T05:21:17;4.27;;;1.30;;
21507;SDS011;10915;54.352;9.074;2023-08-31T05:27:02;3.53;;;1.20;;
21507;SDS011;10915;54.352;9.074;2023-08-31T05:50:43;5.80;;;0.90;;
21507;SDS011;10915;54.352;9.074;2023-08-31T05:53:23;2.43;;;0.80;;
21507;SDS011;10915;54.352;9.074;2023-08-31T06:02:42;1.43;;;0.93;;
21507;SDS011;10915;54.352;9.074;2023-08-31T06:18:45;5.37;;;1.80;;
21507;SDS011;10915;54.352;9.074;2023-08-31T06:23:52;4.43;;;1.40;;
21507;SDS011;10915;54.352;9.074;2023-08-31T07:54:00;1.93;;;0.93;;
21507;SDS011;10915;54.352;9.074;2023-08-31T07:57:10;3.00;;;0.93;;
21507;SDS011;10915;54.352;9.074;2023-08-31T08:06:32;0.73;;;0.60;;
21507;SDS011;10915;54.352;9.074;2023-08-31T08:18:47;4.77;;;1.10;;
21507;SDS011;10915;54.352;9.074;2023-08-31T08:21:21;4.03;;;0.90;;
21507;SDS011;10915;54.352;9.074;2023-08-31T08:24:15;3.73;;;1.10;;
21507;SDS011;10915;54.352;9.074;2023-08-31T08:26:44;4.90;;;1.10;;
21507;SDS011;10915;54.352;9.074;2023-08-31T08:38:08;3.43;;;0.93;;
21507;SDS011;10915;54.352;9.074;2023-08-31T08:40:35;2.30;;;0.97;;
21507;SDS011;10915;54.352;9.074;2023-08-31T08:43:01;6.30;;;1.33;;
21507;SDS011;10915;54.352;9.074;2023-08-31T08:45:29;8.37;;;1.30;;
21507;SDS011;10915;54.352;9.074;2023-08-31T08:48:06;2.33;;;1.00;;
21507;SDS011;10915;54.352;9.074;2023-08-31T08:50:33;5.07;;;0.87;;
21507;SDS011;10915;54.352;9.074;2023-08-31T08:53:01;3.40;;;1.00;;
21507;SDS011;10915;54.352;9.074;2023-08-31T08:55:27;4.27;;;0.90;;
21507;SDS011;10915;54.352;9.074;2023-08-31T08:57:53;6.47;;;1.13;;
21507;SDS011;10915;54.352;9.074;2023-08-31T09:00:19;5.10;;;1.70;;
21507;SDS011;10915;54.352;9.074;2023-08-31T09:02:45;6.87;;;1.23;;
21507;SDS011;10915;54.352;9.074;2023-08-31T09:05:11;2.73;;;1.00;;
21507;SDS011;10915;54.352;9.074;2023-08-31T09:07:36;4.27;;;1.53;;
21507;SDS011;10915;54.352;9.074;2023-08-31T09:10:04;1.83;;;0.93;;
21507;SDS011;10915;54.352;9.074;2023-08-31T09:12:30;1.17;;;0.67;;
21507;SDS011;10915;54.352;9.074;2023-08-31T09:17:24;4.53;;;0.90;;
21507;SDS011;10915;54.352;9.074;2023-08-31T09:19:59;3.73;;;0.90;;
21507;SDS011;10915;54.352;9.074;2023-08-31T09:22:26;4.10;;;1.13;;
21507;SDS011;10915;54.352;9.074;2023-08-31T09:24:52;11.10;;;2.40;;
21507;SDS011;10915;54.352;9.074;2023-08-31T09:27:17;6.47;;;1.70;;
21507;SDS011;10915;54.352;9.074;2023-08-31T09:29:46;1.53;;;0.70;;
21507;SDS011;10915;54.352;9.074;2023-08-31T09:32:18;1.97;;;0.77;;
21507;SDS011;10915;54.352;9.074;2023-08-31T09:34:44;3.40;;;0.70;;
21507;SDS011;10915;54.352;9.074;2023-08-31T09:37:10;0.90;;;0.50;;
21507;SDS011;10915;54.352;9.074;2023-08-31T09:39:36;0.67;;;0.20;;
21507;SDS011;10915;54.352;9.074;2023-08-31T09:42:05;0.63;;;0.23;;
21507;SDS011;10915;54.352;9.074;2023-08-31T09:44:31;1.20;;;0.43;;
21507;SDS011;10915;54.352;9.074;2023-08-31T09:46:57;0.50;;;0.40;;
21507;SDS011;10915;54.352;9.074;2023-08-31T09:49:23;0.87;;;0.57;;
21507;SDS011;10915;54.352;9.074;2023-08-31T09:51:50;1.47;;;0.60;;
21507;SDS011;10915;54.352;9.074;2023-08-31T09:54:17;2.53;;;0.50;;
21507;SDS011;10915;54.352;9.074;2023-08-31T09:56:45;2.40;;;0.60;;
21507;SDS011;10915;54.352;9.074;2023-08-31T09:59:12;2.20;;;0.70;;
21507;SDS011;10915;54.352;9.074;2023-08-31T10:01:39;1.33;;;0.60;;
21507;SDS011;10915;54.352;9.074;2023-08-31T10:04:06;1.10;;;0.40;;
21507;SDS011;10915;54.352;9.074;2023-08-31T10:06:34;0.90;;;0.60;;
21507;SDS011;10915;54.352;9.074;2023-08-31T10:09:01;2.10;;;0.70;;
21507;SDS011;10915;54.352;9.074;2023-08-31T10:11:28;1.60;;;0.47;;
21507;SDS011;10915;54.352;9.074;2023-08-31T10:13:55;1.73;;;0.50;;
21507;SDS011;10915;54.352;9.074;2023-08-31T10:16:22;1.80;;;0.70;;
21507;SDS011;10915;54.352;9.074;2023-08-31T10:18:49;2.00;;;0.70;;
21507;SDS011;10915;54.352;9.074;2023-08-31T10:21:18;5.17;;;1.30;;
21507;SDS011;10915;54.352;9.074;2023-08-31T10:23:45;1.40;;;0.70;;
21507;SDS011;10915;54.352;9.074;2023-08-31T10:26:11;1.83;;;0.70;;
21507;SDS011;10915;54.352;9.074;2023-08-31T10:28:40;3.13;;;0.93;;
21507;SDS011;10915;54.352;9.074;2023-08-31T10:31:08;3.27;;;1.17;;
21507;SDS011;10915;54.352;9.074;2023-08-31T10:33:41;2.07;;;0.60;;
21507;SDS011;10915;54.352;9.074;2023-08-31T10:36:18;2.20;;;0.77;;
21507;SDS011;10915;54.352;9.074;2023-08-31T10:41:22;1.43;;;0.63;;
21507;SDS011;10915;54.352;9.074;2023-08-31T10:43:58;2.20;;;0.70;;
21507;SDS011;10915;54.352;9.074;2023-08-31T10:46:34;2.37;;;0.90;;
21507;SDS011;10915;54.352;9.074;2023-08-31T10:54:25;3.67;;;0.90;;
21507;SDS011;10915;54.352;9.074;2023-08-31T10:57:02;3.23;;;0.83;;
21507;SDS011;10915;54.352;9.074;2023-08-31T11:02:07;2.33;;;0.80;;
21507;SDS011;10915;54.352;9.074;2023-08-31T11:04:52;3.37;;;1.43;;
21507;SDS011;10915;54.352;9.074;2023-08-31T11:07:41;4.47;;;0.80;;
21507;SDS011;10915;54.352;9.074;2023-08-31T11:10:15;2.67;;;0.73;;
21507;SDS011;10915;54.352;9.074;2023-08-31T11:12:46;0.90;;;0.50;;
21507;SDS011;10915;54.352;9.074;2023-08-31T11:15:16;1.80;;;0.50;;
21507;SDS011;10915;54.352;9.074;2023-08-31T11:17:43;0.93;;;0.50;;
21507;SDS011;10915;54.352;9.074;2023-08-31T11:20:13;1.10;;;0.47;;
21507;SDS011;10915;54.352;9.074;2023-08-31T11:22:40;3.37;;;0.60;;
21507;SDS011;10915;54.352;9.074;2023-08-31T11:25:07;3.93;;;0.90;;
21507;SDS011;10915;54.352;9.074;2023-08-31T11:27:34;2.30;;;0.93;;
21507;SDS011;10915;54.352;9.074;2023-08-31T11:29:59;2.10;;;0.50;;
21507;SDS011;10915;54.352;9.074;2023-08-31T11:32:25;1.10;;;0.50;;
21507;SDS011;10915;54.352;9.074;2023-08-31T11:34:51;2.10;;;0.70;;
21507;SDS011;10915;54.352;9.074;2023-08-31T11:37:17;0.47;;;0.27;;
21507;SDS011;10915;54.352;9.074;2023-08-31T11:39:48;1.83;;;0.50;;
21507;SDS011;10915;54.352;9.074;2023-08-31T11:42:15;2.50;;;0.60;;
21507;SDS011;10915;54.352;9.074;2023-08-31T11:44:43;1.20;;;0.50;;
21507;SDS011;10915;54.352;9.074;2023-08-31T11:47:11;2.20;;;0.93;;
21507;SDS011;10915;54.352;9.074;2023-08-31T11:49:38;2.43;;;0.60;;
21507;SDS011;10915;54.352;9.074;2023-08-31T11:52:05;1.37;;;0.80;;
21507;SDS011;10915;54.352;9.074;2023-08-31T11:54:31;1.50;;;0.73;;
21507;SDS011;10915;54.352;9.074;2023-08-31T11:56:56;2.33;;;0.60;;
21507;SDS011;10915;54.352;9.074;2023-08-31T11:59:22;3.05;;;0.82;;
21507;SDS011;10915;54.352;9.074;2023-08-31T12:01:49;2.50;;;0.70;;
21507;SDS011;10915;54.352;9.074;2023-08-31T12:04:16;1.00;;;0.63;;
21507;SDS011;10915;54.352;9.074;2023-08-31T12:06:47;2.63;;;0.87;;
21507;SDS011;10915;54.352;9.074;2023-08-31T12:09:16;2.00;;;0.80;;
21507;SDS011;10915;54.352;9.074;2023-08-31T12:11:41;2.37;;;0.97;;
21507;SDS011;10915;54.352;9.074;2023-08-31T12:14:20;0.90;;;0.50;;
21507;SDS011;10915;54.352;9.074;2023-08-31T12:16:50;2.10;;;0.70;;
21507;SDS011;10915;54.352;9.074;2023-08-31T12:19:17;1.77;;;0.63;;
21507;SDS011;10915;54.352;9.074;2023-08-31T12:21:43;1.63;;;0.50;;
21507;SDS011;10915;54.352;9.074;2023-08-31T12:24:10;1.47;;;0.70;;
21507;SDS011;10915;54.352;9.074;2023-08-31T12:26:36;2.37;;;0.53;;
21507;SDS011;10915;54.352;9.074;2023-08-31T12:29:02;1.30;;;0.63;;
21507;SDS011;10915;54.352;9.074;2023-08-31T12:31:32;2.03;;;0.63;;
21507;SDS011;10915;54.352;9.074;2023-08-31T12:33:58;2.13;;;0.80;;
21507;SDS011;10915;54.352;9.074;2023-08-31T12:36:25;1.30;;;0.63;;
21507;SDS011;10915;54.352;9.074;2023-08-31T12:38:51;1.30;;;0.50;;
21507;SDS011;10915;54.352;9.074;2023-08-31T12:41:17;2.70;;;0.53;;
21507;SDS011;10915;54.352;9.074;2023-08-31T12:43:44;3.50;;;0.60;;
21507;SDS011;10915;54.352;9.074;2023-08-31T12:46:10;1.60;;;0.77;;
21507;SDS011;10915;54.352;9.074;2023-08-31T12:48:38;1.53;;;0.70;;
21507;SDS011;10915;54.352;9.074;2023-08-31T12:51:04;2.47;;;0.70;;
21507;SDS011;10915;54.352;9.074;2023-08-31T12:53:29;1.87;;;0.80;;
21507;SDS011;10915;54.352;9.074;2023-08-31T12:55:55;0.97;;;0.63;;
21507;SDS011;10915;54.352;9.074;2023-08-31T12:58:21;1.73;;;0.63;;
21507;SDS011;10915;54.352;9.074;2023-08-31T13:00:47;1.97;;;0.60;;
21507;SDS011;10915;54.352;9.074;2023-08-31T13:03:14;2.43;;;0.77;;
21507;SDS011;10915;54.352;9.074;2023-08-31T13:05:40;1.17;;;0.90;;
21507;SDS011;10915;54.352;9.074;2023-08-31T13:08:06;2.07;;;0.70;;
21507;SDS011;10915;54.352;9.074;2023-08-31T13:10:32;2.92;;;0.90;;
21507;SDS011;10915;54.352;9.074;2023-08-31T13:12:59;1.73;;;0.60;;
21507;SDS011;10915;54.352;9.074;2023-08-31T13:15:24;4.30;;;1.10;;
21507;SDS011;10915;54.352;9.074;2023-08-31T13:17:50;2.00;;;0.70;;
21507;SDS011;10915;54.352;9.074;2023-08-31T13:20:16;1.37;;;0.70;;
21507;SDS011;10915;54.352;9.074;2023-08-31T13:22:42;3.57;;;0.70;;
21507;SDS011;10915;54.352;9.074;2023-08-31T13:25:07;1.90;;;0.60;;
21507;SDS011;10915;54.352;9.074;2023-08-31T13:27:34;2.17;;;0.67;;
21507;SDS011;10915;54.352;9.074;2023-08-31T13:29:59;2.20;;;0.70;;
21507;SDS011;10915;54.352;9.074;2023-08-31T13:32:25;1.30;;;0.70;;
21507;SDS011;10915;54.352;9.074;2023-08-31T13:34:51;4.37;;;0.93;;
21507;SDS011;10915;54.352;9.074;2023-08-31T13:37:18;3.37;;;0.70;;
21507;SDS011;10915;54.352;9.074;2023-08-31T13:39:44;2.10;;;0.70;;
21507;SDS011;10915;54.352;9.074;2023-08-31T13:42:10;1.43;;;0.73;;
21507;SDS011;10915;54.352;9.074;2023-08-31T13:44:35;2.30;;;0.80;;
21507;SDS011;10915;54.352;9.074;2023-08-31T13:47:01;3.33;;;0.83;;
21507;SDS011;10915;54.352;9.074;2023-08-31T13:49:28;5.03;;;1.33;;
21507;SDS011;10915;54.352;9.074;2023-08-31T13:51:54;3.97;;;1.00;;
21507;SDS011;10915;54.352;9.074;2023-08-31T13:54:20;2.53;;;1.10;;
21507;SDS011;10915;54.352;9.074;2023-08-31T13:56:45;3.13;;;0.87;;
21507;SDS011;10915;54.352;9.074;2023-08-31T13:59:11;3.90;;;1.20;;
21507;SDS011;10915;54.352;9.074;2023-08-31T14:01:36;2.65;;;0.90;;
21507;SDS011;10915;54.352;9.074;2023-08-31T14:04:03;4.43;;;1.00;;
21507;SDS011;10915;54.352;9.074;2023-08-31T14:06:29;3.17;;;1.10;;
21507;SDS011;10915;54.352;9.074;2023-08-31T14:08:55;2.03;;;0.70;;
21507;SDS011;10915;54.352;9.074;2023-08-31T14:11:20;2.27;;;1.10;;
21507;SDS011;10915;54.352;9.074;2023-08-31T14:13:46;6.00;;;1.17;;
21507;SDS011;10915;54.352;9.074;2023-08-31T14:16:11;4.20;;;0.93;;
21507;SDS011;10915;54.352;9.074;2023-08-31T14:18:37;3.93;;;1.40;;
21507;SDS011;10915;54.352;9.074;2023-08-31T14:21:03;3.47;;;1.27;;
21507;SDS011;10915;54.352;9.074;2023-08-31T14:23:29;4.20;;;1.23;;
21507;SDS011;10915;54.352;9.074;2023-08-31T14:26:00;4.97;;;1.40;;
21507;SDS011;10915;54.352;9.074;2023-08-31T14:28:28;3.43;;;1.00;;
21507;SDS011;10915;54.352;9.074;2023-08-31T14:30:53;2.93;;;0.70;;
21507;SDS011;10915;54.352;9.074;2023-08-31T14:33:19;3.40;;;1.13;;
21507;SDS011;10915;54.352;9.074;2023-08-31T14:35:44;3.53;;;1.10;;
21507;SDS011;10915;54.352;9.074;2023-08-31T14:38:10;3.37;;;1.03;;
21507;SDS011;10915;54.352;9.074;2023-08-31T14:40:40;5.50;;;0.90;;
21507;SDS011;10915;54.352;9.074;2023-08-31T14:43:06;2.67;;;0.97;;
21507;SDS011;10915;54.352;9.074;2023-08-31T14:45:32;3.83;;;1.27;;
21507;SDS011;10915;54.352;9.074;2023-08-31T14:47:57;1.60;;;0.80;;
21507;SDS011;10915;54.352;9.074;2023-08-31T14:50:23;3.37;;;1.00;;
21507;SDS011;10915;54.352;9.074;2023-08-31T14:52:48;1.90;;;0.80;;
21507;SDS011;10915;54.352;9.074;2023-08-31T14:55:14;4.93;;;0.90;;
21507;SDS011;10915;54.352;9.074;2023-08-31T14:57:40;3.33;;;1.30;;
21507;SDS011;10915;54.352;9.074;2023-08-31T15:00:07;2.80;;;0.77;;
21507;SDS011;10915;54.352;9.074;2023-08-31T15:02:34;3.27;;;1.00;;
21507;SDS011;10915;54.352;9.074;2023-08-31T15:05:13;2.70;;;1.20;;
21507;SDS011;10915;54.352;9.074;2023-08-31T15:08:40;2.60;;;0.90;;
21507;SDS011;10915;54.352;9.074;2023-08-31T15:11:30;3.20;;;0.77;;
21507;SDS011;10915;54.352;9.074;2023-08-31T15:14:02;4.17;;;1.07;;
21507;SDS011;10915;54.352;9.074;2023-08-31T15:16:29;2.57;;;1.10;;
21507;SDS011;10915;54.352;9.074;2023-08-31T15:19:04;4.40;;;1.07;;
21507;SDS011;10915;54.352;9.074;2023-08-31T15:21:36;2.90;;;1.10;;
21507;SDS011;10915;54.352;9.074;2023-08-31T15:24:12;4.27;;;1.37;;
21507;SDS011;10915;54.352;9.074;2023-08-31T15:36:12;3.90;;;1.60;;
21507;SDS011;10915;54.352;9.074;2023-08-31T15:41:40;2.47;;;1.20;;
21507;SDS011;10915;54.352;9.074;2023-08-31T15:44:18;5.00;;;0.97;;
21507;SDS011;10915;54.352;9.074;2023-08-31T15:49:47;3.97;;;1.40;;
21507;SDS011;10915;54.352;9.074;2023-08-31T15:52:38;4.07;;;1.23;;
21507;SDS011;10915;54.352;9.074;2023-08-31T15:55:08;3.90;;;1.30;;
21507;SDS011;10915;54.352;9.074;2023-08-31T15:57:43;3.97;;;1.10;;
21507;SDS011;10915;54.352;9.074;2023-08-31T16:03:30;3.97;;;1.57;;
21507;SDS011;10915;54.352;9.074;2023-08-31T16:06:07;3.90;;;1.60;;
21507;SDS011;10915;54.352;9.074;2023-08-31T16:08:41;4.20;;;1.30;;
21507;SDS011;10915;54.352;9.074;2023-08-31T16:11:26;2.87;;;1.13;;
21507;SDS011;10915;54.352;9.074;2023-08-31T16:14:25;1.90;;;1.00;;
21507;SDS011;10915;54.352;9.074;2023-08-31T16:17:22;4.93;;;1.63;;
21507;SDS011;10915;54.352;9.074;2023-08-31T16:20:00;3.78;;;1.60;;
21507;SDS011;10915;54.352;9.074;2023-08-31T16:22:26;4.97;;;1.48;;
21507;SDS011;10915;54.352;9.074;2023-08-31T16:25:00;3.83;;;1.70;;
21507;SDS011;10915;54.352;9.074;2023-08-31T16:27:47;4.33;;;1.60;;
21507;SDS011;10915;54.352;9.074;2023-08-31T16:30:20;4.67;;;1.50;;
21507;SDS011;10915;54.352;9.074;2023-08-31T16:33:03;3.17;;;1.40;;
21507;SDS011;10915;54.352;9.074;2023-08-31T16:39:20;3.55;;;1.60;;
21507;SDS011;10915;54.352;9.074;2023-08-31T16:45:25;3.78;;;1.85;;
21507;SDS011;10915;54.352;9.074;2023-08-31T16:48:00;5.68;;;1.90;;
21507;SDS011;10915;54.352;9.074;2023-08-31T16:50:38;3.57;;;1.60;;
21507;SDS011;10915;54.352;9.074;2023-08-31T16:53:48;6.10;;;1.83;;
21507;SDS011;10915;54.352;9.074;2023-08-31T16:56:21;5.27;;;1.53;;
21507;SDS011;10915;54.352;9.074;2023-08-31T16:58:50;4.00;;;1.70;;
21507;SDS011;10915;54.352;9.074;2023-08-31T17:01:21;3.75;;;1.70;;
21507;SDS011;10915;54.352;9.074;2023-08-31T17:04:00;4.07;;;2.10;;
21507;SDS011;10915;54.352;9.074;2023-08-31T17:06:48;3.97;;;1.60;;
21507;SDS011;10915;54.352;9.074;2023-08-31T17:09:45;4.07;;;1.93;;
21507;SDS011;10915;54.352;9.074;2023-08-31T17:12:14;6.60;;;2.30;;
21507;SDS011;10915;54.352;9.074;2023-08-31T17:17:40;1.73;;;1.37;;
21507;SDS011;10915;54.352;9.074;2023-08-31T17:20:33;3.17;;;1.40;;
21507;SDS011;10915;54.352;9.074;2023-08-31T17:26:00;4.00;;;1.77;;
21507;SDS011;10915;54.352;9.074;2023-08-31T17:29:06;3.03;;;1.60;;
21507;SDS011;10915;54.352;9.074;2023-08-31T17:35:03;2.87;;;1.40;;
21507;SDS011;10915;54.352;9.074;2023-08-31T17:37:34;3.30;;;1.60;;
21507;SDS011;10915;54.352;9.074;2023-08-31T17:40:01;5.30;;;1.50;;
21507;SDS011;10915;54.352;9.074;2023-08-31T17:42:45;6.73;;;2.30;;
21507;SDS011;10915;54.352;9.074;2023-08-31T17:45:56;2.73;;;1.40;;
21507;SDS011;10915;54.352;9.074;2023-08-31T17:48:27;3.47;;;1.70;;
21507;SDS011;10915;54.352;9.074;2023-08-31T17:51:14;2.80;;;1.60;;
21507;SDS011;10915;54.352;9.074;2023-08-31T17:53:46;3.77;;;1.80;;
21507;SDS011;10915;54.352;9.074;2023-08-31T17:56:53;4.27;;;2.00;;
21507;SDS011;10915;54.352;9.074;2023-08-31T17:59:29;3.00;;;1.80;;
21507;SDS011;10915;54.352;9.074;2023-08-31T18:02:12;4.67;;;1.73;;
21507;SDS011;10915;54.352;9.074;2023-08-31T18:04:38;4.87;;;1.87;;
21507;SDS011;10915;54.352;9.074;2023-08-31T18:07:26;3.50;;;1.77;;
21507;SDS011;10915;54.352;9.074;2023-08-31T18:09:51;5.33;;;1.83;;
21507;SDS011;10915;54.352;9.074;2023-08-31T18:12:25;4.67;;;1.70;;
21507;SDS011;10915;54.352;9.074;2023-08-31T18:14:55;5.83;;;1.90;;
21507;SDS011;10915;54.352;9.074;2023-08-31T18:17:20;4.47;;;1.57;;
21507;SDS011;10915;54.352;9.074;2023-08-31T18:19:56;5.43;;;2.00;;
21507;SDS011;10915;54.352;9.074;2023-08-31T18:22:25;5.37;;;1.90;;
21507;SDS011;10915;54.352;9.074;2023-08-31T18:24:55;4.97;;;1.90;;
21507;SDS011;10915;54.352;9.074;2023-08-31T18:27:21;5.00;;;1.63;;
21507;SDS011;10915;54.352;9.074;2023-08-31T18:29:51;3.20;;;1.50;;
21507;SDS011;10915;54.352;9.074;2023-08-31T18:32:29;4.47;;;1.70;;
21507;SDS011;10915;54.352;9.074;2023-08-31T18:35:06;3.97;;;1.80;;
21507;SDS011;10915;54.352;9.074;2023-08-31T18:37:53;3.17;;;1.50;;
21507;SDS011;10915;54.352;9.074;2023-08-31T18:40:21;3.40;;;1.67;;
21507;SDS011;10915;54.352;9.074;2023-08-31T18:42:56;6.10;;;1.93;;
21507;SDS011;10915;54.352;9.074;2023-08-31T18:45:22;4.27;;;1.40;;
21507;SDS011;10915;54.352;9.074;2023-08-31T18:50:58;3.97;;;1.40;;
21507;SDS011;10915;54.352;9.074;2023-08-31T18:53:33;5.50;;;1.40;;
21507;SDS011;10915;54.352;9.074;2023-08-31T18:56:33;3.10;;;1.23;;
21507;SDS011;10915;54.352;9.074;2023-08-31T18:58:59;4.60;;;1.70;;
21507;SDS011;10915;54.352;9.074;2023-08-31T19:01:25;3.07;;;1.30;;
21507;SDS011;10915;54.352;9.074;2023-08-31T19:04:13;3.60;;;1.47;;
21507;SDS011;10915;54.352;9.074;2023-08-31T19:07:07;3.10;;;1.57;;
21507;SDS011;10915;54.352;9.074;2023-08-31T19:09:37;5.20;;;1.50;;
21507;SDS011;10915;54.352;9.074;2023-08-31T19:12:03;4.50;;;2.10;;
21507;SDS011;10915;54.352;9.074;2023-08-31T19:14:35;4.53;;;1.70;;
21507;SDS011;10915;54.352;9.074;2023-08-31T19:17:06;3.87;;;1.80;;
21507;SDS011;10915;54.352;9.074;2023-08-31T19:19:41;6.30;;;1.80;;
21507;SDS011;10915;54.352;9.074;2023-08-31T19:22:09;2.17;;;1.23;;
21507;SDS011;10915;54.352;9.074;2023-08-31T19:24:41;4.53;;;1.60;;
21507;SDS011;10915;54.352;9.074;2023-08-31T19:27:07;4.00;;;1.63;;
21507;SDS011;10915;54.352;9.074;2023-08-31T19:29:50;5.80;;;1.60;;
21507;SDS011;10915;54.352;9.074;2023-08-31T19:32:22;4.07;;;1.60;;
21507;SDS011;10915;54.352;9.074;2023-08-31T19:34:54;3.17;;;1.47;;
21507;SDS011;10915;54.352;9.074;2023-08-31T19:37:34;2.70;;;1.50;;
21507;SDS011;10915;54.352;9.074;2023-08-31T19:40:07;3.10;;;1.43;;